Time;durP1;ratioP1;P1;durP2;ratioP2;P2;SDS_P1;SDS_P2;PMS_P1;PMS_P2;Temp;Humidity;BMP_temperature;BMP_pressure;BME280_temperature;BME280_humidity;BME280_pressure;Samples;Min_cycle;Max_cycle;Signal;HPM_P1;HPM_P2
2024/03/02 00:00:35;;;;;;;;;;;9.30;1.00;;;;;;5072405;28;20008;-83
2024/03/02 00:03:01;;;;;;;;;;;9.40;1.00;;;;;;5022180;28;19949;-82
2024/03/02 00:05:27;;;;;;;;;;;9.30;1.00;;;;;;5073301;28;19954;-82
2024/03/02 00:07:57;;;;;;;;;;;9.40;1.00;;;;;;5065630;28;19913;-84
2024/03/02 00:10:29;;;;;;;;;;;9.40;1.00;;;;;;5063982;28;19913;-85
2024/03/02 00:12:55;;;;;;;;;;;9.50;1.00;;;;;;5049099;28;20393;-84
2024/03/02 00:15:21;;;;;;;;;;;9.40;1.00;;;;;;5073912;28;19915;-84
2024/03/02 00:17:52;;;;;;;;;;;9.40;1.00;;;;;;5058474;28;20117;-84
2024/03/02 00:20:18;;;;;;;;;;;9.40;1.00;;;;;;5066742;28;19944;-83
2024/03/02 00:22:44;;;;;;;;;;;9.50;1.00;;;;;;5076391;28;19991;-85
2024/03/02 00:25:10;;;;;;;;;;;9.50;1.00;;;;;;5049581;28;19951;-84
2024/03/02 00:27:35;;;;;;;;;;;9.50;1.00;;;;;;5052034;28;19920;-81
2024/03/02 00:30:22;;;;;;;;;;;9.50;1.00;;;;;;5074502;28;19909;-83
2024/03/02 00:32:47;;;;;;;;;;;9.50;1.00;;;;;;5065258;28;19921;-83
2024/03/02 00:35:12;;;;;;;;;;;9.50;1.00;;;;;;5061962;28;19916;-83
2024/03/02 00:37:38;;;;;;;;;;;9.50;1.00;;;;;;5055018;28;19963;-85
2024/03/02 00:40:04;;;;;;;;;;;9.40;1.00;;;;;;5070114;28;19955;-83
2024/03/02 00:42:31;;;;;;;;;;;9.40;1.00;;;;;;5072244;28;19924;-85
2024/03/02 00:44:56;;;;;;;;;;;9.40;1.00;;;;;;5076279;28;19959;-83
2024/03/02 00:47:21;;;;;;;;;;;9.40;1.00;;;;;;5064384;28;19917;-84
2024/03/02 00:49:47;;;;;;;;;;;9.40;1.00;;;;;;5053250;28;19916;-84
2024/03/02 00:52:13;;;;;;;;;;;9.40;1.00;;;;;;5063099;28;19919;-83
2024/03/02 00:54:38;;;;;;;;;;;9.40;1.00;;;;;;5037726;28;19909;-82
2024/03/02 00:57:04;;;;;;;;;;;9.30;1.00;;;;;;5038505;28;19916;-80
2024/03/02 00:59:31;;;;;;;;;;;9.40;1.00;;;;;;5058141;28;19909;-82
2024/03/02 01:01:57;;;;;;;;;;;9.30;1.00;;;;;;5068659;28;19970;-82
2024/03/02 01:04:22;;;;;;;;;;;9.30;1.00;;;;;;5055442;28;19996;-84
2024/03/02 01:06:48;;;;;;;;;;;9.30;1.00;;;;;;5059248;28;20301;-83
2024/03/02 01:09:13;;;;;;;;;;;9.30;1.00;;;;;;5067468;28;19915;-82
2024/03/02 01:11:39;;;;;;;;;;;9.20;1.00;;;;;;5066929;28;20003;-83
2024/03/02 01:14:05;;;;;;;;;;;9.20;1.00;;;;;;5042446;28;20286;-82
2024/03/02 01:16:30;;;;;;;;;;;9.20;4.70;;;;;;5045906;28;19909;-83
2024/03/02 01:18:56;;;;;;;;;;;9.20;3.00;;;;;;5059942;28;19912;-82
2024/03/02 01:21:21;;;;;;;;;;;9.20;13.90;;;;;;5059964;28;20333;-82
2024/03/02 01:23:47;;;;;;;;;;;9.20;25.50;;;;;;5066965;28;19912;-81
2024/03/02 01:26:12;;;;;;;;;;;9.20;43.80;;;;;;5066867;28;19915;-82
2024/03/02 01:28:38;;;;;;;;;;;9.20;73.70;;;;;;5069246;28;19948;-84
2024/03/02 01:31:03;;;;;;;;;;;9.20;92.90;;;;;;5083336;28;19920;-84
2024/03/02 01:33:29;;;;;;;;;;;9.20;92.40;;;;;;5058171;28;19917;-84
2024/03/02 01:35:54;;;;;;;;;;;9.30;99.30;;;;;;5056332;28;19908;-84
2024/03/02 01:38:20;;;;;;;;;;;9.30;99.90;;;;;;5074341;28;19982;-83
2024/03/02 01:40:45;;;;;;;;;;;9.30;99.30;;;;;;5055612;28;19913;-84
2024/03/02 01:43:11;;;;;;;;;;;9.40;92.10;;;;;;5069755;28;19940;-84
2024/03/02 01:45:37;;;;;;;;;;;9.40;91.60;;;;;;5061901;28;19909;-83
2024/03/02 01:48:04;;;;;;;;;;;9.40;82.60;;;;;;5077402;28;20374;-84
2024/03/02 01:50:33;;;;;;;;;;;9.40;72.60;;;;;;5079802;28;19920;-83
2024/03/02 01:52:59;;;;;;;;;;;9.40;64.70;;;;;;5049550;28;19916;-84
2024/03/02 01:55:25;;;;;;;;;;;9.40;66.10;;;;;;5055673;28;19931;-83
2024/03/02 01:57:51;;;;;;;;;;;9.50;57.90;;;;;;5047970;28;20314;-83
2024/03/02 02:00:17;;;;;;;;;;;9.50;60.40;;;;;;5061825;28;20448;-84
2024/03/02 02:02:43;;;;;;;;;;;9.50;81.30;;;;;;5062386;28;19919;-84
2024/03/02 02:05:09;;;;;;;;;;;9.50;98.90;;;;;;5077938;28;19944;-82
2024/03/02 02:07:34;;;;;;;;;;;9.50;76.70;;;;;;5063699;28;20008;-84
2024/03/02 02:10:01;;;;;;;;;;;9.60;26.30;;;;;;5068128;28;19916;-83
2024/03/02 02:12:26;;;;;;;;;;;9.60;6.20;;;;;;5074193;28;19917;-85
2024/03/02 02:14:52;;;;;;;;;;;9.70;1.00;;;;;;5072237;28;19908;-86
2024/03/02 02:17:17;;;;;;;;;;;9.70;1.00;;;;;;5054424;28;19963;-84
2024/03/02 02:19:43;;;;;;;;;;;9.70;1.00;;;;;;5073693;28;19908;-84
2024/03/02 02:22:09;;;;;;;;;;;9.80;1.00;;;;;;5079326;28;19999;-84
2024/03/02 02:24:34;;;;;;;;;;;9.80;1.00;;;;;;5053332;28;19915;-83
2024/03/02 02:27:00;;;;;;;;;;;9.80;50.30;;;;;;5058833;28;19912;-82
2024/03/02 02:29:26;;;;;;;;;;;9.90;99.90;;;;;;5059272;28;19994;-83
2024/03/02 02:31:51;;;;;;;;;;;9.80;99.90;;;;;;5071323;28;19913;-84
2024/03/02 02:34:17;;;;;;;;;;;9.80;1.00;;;;;;5068087;28;19920;-82
2024/03/02 02:36:42;;;;;;;;;;;9.70;99.90;;;;;;5043004;28;19948;-84
2024/03/02 02:39:11;;;;;;;;;;;9.60;99.90;;;;;;5068198;28;20267;-83
2024/03/02 02:41:37;;;;;;;;;;;9.50;1.00;;;;;;5071886;28;19913;-83
2024/03/02 02:44:03;;;;;;;;;;;9.40;99.90;;;;;;5046490;28;19930;-83
2024/03/02 02:46:28;;;;;;;;;;;9.30;1.00;;;;;;5078881;28;19908;-82
2024/03/02 02:48:54;;;;;;;;;;;9.30;65.10;;;;;;5061545;28;19931;-84
2024/03/02 02:51:20;;;;;;;;;;;9.20;99.90;;;;;;5062000;28;19983;-83
2024/03/02 02:53:45;;;;;;;;;;;9.10;1.00;;;;;;5072957;28;19927;-84
2024/03/02 02:56:11;;;;;;;;;;;9.00;99.90;;;;;;5066498;28;19949;-84
2024/03/02 02:58:36;;;;;;;;;;;9.00;1.00;;;;;;5075659;28;19955;-84
2024/03/02 03:01:02;;;;;;;;;;;9.00;1.00;;;;;;5061800;28;19935;-84
2024/03/02 03:03:27;;;;;;;;;;;8.90;1.00;;;;;;5065728;28;19995;-84
2024/03/02 03:05:53;;;;;;;;;;;8.90;99.90;;;;;;5080948;28;19913;-83
2024/03/02 03:08:18;;;;;;;;;;;8.90;99.90;;;;;;5071976;28;20293;-83
2024/03/02 03:10:44;;;;;;;;;;;8.90;99.90;;;;;;5078789;28;19897;-84
2024/03/02 03:13:10;;;;;;;;;;;8.90;99.90;;;;;;5075311;28;19909;-84
2024/03/02 03:15:36;;;;;;;;;;;8.80;99.90;;;;;;5064954;28;20301;-84
2024/03/02 03:18:03;;;;;;;;;;;8.80;99.90;;;;;;5073731;28;19951;-85
2024/03/02 03:20:29;;;;;;;;;;;8.80;75.00;;;;;;5082723;28;19912;-83
2024/03/02 03:22:54;;;;;;;;;;;8.80;99.90;;;;;;5066800;28;19908;-83
2024/03/02 03:25:20;;;;;;;;;;;8.80;99.90;;;;;;5049353;28;19909;-83
2024/03/02 03:27:46;;;;;;;;;;;8.80;99.90;;;;;;5065209;28;19908;-83
2024/03/02 03:30:11;;;;;;;;;;;8.80;99.90;;;;;;5077014;28;19912;-82
2024/03/02 03:32:37;;;;;;;;;;;8.80;99.90;;;;;;5074812;28;19935;-84
2024/03/02 03:35:03;;;;;;;;;;;8.70;99.90;;;;;;5082337;28;19958;-83
2024/03/02 03:37:32;;;;;;;;;;;8.70;1.00;;;;;;5067363;28;19913;-84
2024/03/02 03:39:59;;;;;;;;;;;8.70;1.00;;;;;;5066449;28;19935;-82
2024/03/02 03:42:24;;;;;;;;;;;8.70;1.00;;;;;;5074768;28;20486;-83
2024/03/02 03:44:50;;;;;;;;;;;8.70;1.00;;;;;;5052012;28;19952;-83
2024/03/02 03:47:15;;;;;;;;;;;8.70;1.00;;;;;;5057713;28;19932;-83
2024/03/02 03:49:41;;;;;;;;;;;8.70;1.00;;;;;;5069881;28;19920;-83
2024/03/02 03:52:06;;;;;;;;;;;8.70;99.90;;;;;;5066310;28;19924;-84
2024/03/02 03:54:31;;;;;;;;;;;8.70;99.90;;;;;;5054836;28;19909;-81
2024/03/02 03:56:57;;;;;;;;;;;8.60;1.00;;;;;;5051916;28;19948;-83
2024/03/02 03:59:23;;;;;;;;;;;8.60;1.00;;;;;;5060025;28;19912;-82
2024/03/02 04:01:49;;;;;;;;;;;8.60;41.20;;;;;;5051972;28;19908;-83
2024/03/02 04:04:14;;;;;;;;;;;8.60;99.90;;;;;;5066671;28;19913;-82
2024/03/02 04:06:40;;;;;;;;;;;8.60;99.90;;;;;;5055072;28;20298;-85
2024/03/02 04:09:06;;;;;;;;;;;8.60;99.90;;;;;;5077563;28;19972;-85
2024/03/02 04:11:31;;;;;;;;;;;8.60;99.90;;;;;;5050220;28;19913;-84
2024/03/02 04:13:57;;;;;;;;;;;8.60;99.90;;;;;;5084173;28;20336;-84
2024/03/02 04:16:22;;;;;;;;;;;8.60;99.90;;;;;;5076886;28;19975;-84
2024/03/02 04:18:48;;;;;;;;;;;8.60;99.90;;;;;;5073783;28;19919;-84
2024/03/02 04:21:13;;;;;;;;;;;8.60;99.90;;;;;;5045070;28;19979;-83
2024/03/02 04:23:39;;;;;;;;;;;8.60;99.90;;;;;;5071948;28;19909;-84
2024/03/02 04:26:04;;;;;;;;;;;8.60;99.90;;;;;;5076572;28;19915;-84
2024/03/02 04:28:30;;;;;;;;;;;8.60;1.00;;;;;;5084718;28;19931;-84
2024/03/02 04:30:55;;;;;;;;;;;8.50;1.00;;;;;;5054038;28;19939;-83
2024/03/02 04:33:21;;;;;;;;;;;8.50;1.00;;;;;;5071573;28;19917;-83
2024/03/02 04:35:46;;;;;;;;;;;8.40;1.00;;;;;;5041204;28;19913;-82
2024/03/02 04:38:12;;;;;;;;;;;8.50;1.00;;;;;;5067722;28;19912;-83
2024/03/02 04:40:37;;;;;;;;;;;8.50;1.00;;;;;;5059990;28;19909;-84
2024/03/02 04:43:03;;;;;;;;;;;8.50;1.00;;;;;;5062930;28;19909;-84
2024/03/02 04:45:29;;;;;;;;;;;8.50;1.00;;;;;;5064948;28;19967;-83
2024/03/02 04:47:54;;;;;;;;;;;8.50;1.00;;;;;;5063675;28;19908;-83
2024/03/02 04:50:20;;;;;;;;;;;8.50;1.00;;;;;;5064020;28;19915;-83
2024/03/02 04:52:45;;;;;;;;;;;8.60;1.00;;;;;;5070527;28;19916;-81
2024/03/02 04:57:42;;;;;;;;;;;8.60;1.00;;;;;;5071962;28;19917;-84
2024/03/02 05:00:08;;;;;;;;;;;8.50;1.00;;;;;;5058563;28;19909;-84
2024/03/02 05:02:34;;;;;;;;;;;8.60;1.00;;;;;;5053171;28;20285;-83
2024/03/02 05:04:59;;;;;;;;;;;8.60;99.90;;;;;;5077021;28;19931;-83
2024/03/02 05:07:25;;;;;;;;;;;8.60;99.90;;;;;;5078249;28;20389;-83
2024/03/02 05:09:50;;;;;;;;;;;8.60;1.00;;;;;;5074596;28;19909;-83
2024/03/02 05:15:00;;;;;;;;;;;8.60;97.60;;;;;;5066194;28;19916;-84
2024/03/02 05:17:25;;;;;;;;;;;8.70;99.90;;;;;;5076533;28;19913;-84
2024/03/02 05:19:51;;;;;;;;;;;8.70;82.40;;;;;;5067998;28;19913;-83
2024/03/02 05:22:16;;;;;;;;;;;8.70;1.00;;;;;;5056932;28;19909;-84
2024/03/02 05:24:42;;;;;;;;;;;8.70;1.00;;;;;;5063875;28;19909;-83
2024/03/02 05:27:07;;;;;;;;;;;8.70;99.90;;;;;;5068189;28;19913;-83
2024/03/02 05:29:33;;;;;;;;;;;8.80;99.90;;;;;;5061702;28;19908;-83
2024/03/02 05:31:58;;;;;;;;;;;8.80;1.00;;;;;;5053795;28;19917;-82
2024/03/02 05:34:24;;;;;;;;;;;8.80;1.00;;;;;;5081476;28;19912;-82
2024/03/02 05:36:49;;;;;;;;;;;8.80;99.90;;;;;;5076719;28;19916;-82
2024/03/02 05:39:15;;;;;;;;;;;8.80;99.90;;;;;;5066922;28;19930;-82
2024/03/02 05:41:41;;;;;;;;;;;8.80;99.90;;;;;;5039256;28;20079;-81
2024/03/02 05:44:06;;;;;;;;;;;8.80;16.10;;;;;;5069617;28;19951;-82
2024/03/02 05:46:32;;;;;;;;;;;8.80;18.40;;;;;;5078015;28;19909;-82
2024/03/02 05:48:58;;;;;;;;;;;8.80;22.90;;;;;;5078253;28;19909;-83
2024/03/02 05:51:24;;;;;;;;;;;8.80;31.20;;;;;;5069533;28;20443;-82
2024/03/02 05:53:49;;;;;;;;;;;8.80;19.40;;;;;;5078754;28;19962;-82
2024/03/02 05:56:15;;;;;;;;;;;8.80;1.00;;;;;;5059959;28;19963;-83
2024/03/02 05:59:07;;;;;;;;;;;8.80;30.00;;;;;;5063368;28;19939;-82
2024/03/02 06:01:33;;;;;;;;;;;8.80;99.90;;;;;;5078340;28;19936;-82
2024/03/02 06:03:58;;;;;;;;;;;8.80;99.90;;;;;;5079423;28;19916;-82
2024/03/02 06:06:24;;;;;;;;;;;8.70;99.90;;;;;;5078653;28;19930;-82
2024/03/02 06:08:50;;;;;;;;;;;8.70;1.00;;;;;;5065223;28;19952;-83
2024/03/02 06:11:15;;;;;;;;;;;8.60;1.00;;;;;;5063474;28;19958;-82
2024/03/02 06:13:41;;;;;;;;;;;8.60;99.90;;;;;;5058899;28;19915;-81
2024/03/02 06:16:06;;;;;;;;;;;8.60;1.00;;;;;;5082308;28;19987;-82
2024/03/02 06:18:32;;;;;;;;;;;8.60;17.00;;;;;;5081675;28;19916;-82
2024/03/02 06:20:57;;;;;;;;;;;8.60;99.90;;;;;;5065079;28;19909;-83
2024/03/02 06:23:23;;;;;;;;;;;8.60;99.90;;;;;;5070351;28;19991;-83
2024/03/02 06:25:48;;;;;;;;;;;8.60;1.00;;;;;;5086029;28;19908;-83
2024/03/02 06:28:15;;;;;;;;;;;8.60;1.00;;;;;;5086652;28;19909;-83
2024/03/02 06:30:41;;;;;;;;;;;8.60;1.00;;;;;;5059860;28;19913;-83
2024/03/02 06:33:07;;;;;;;;;;;8.60;1.00;;;;;;5069205;28;20309;-82
2024/03/02 06:35:32;;;;;;;;;;;8.60;99.90;;;;;;5069027;28;19935;-83
2024/03/02 06:37:58;;;;;;;;;;;8.70;99.90;;;;;;5066956;28;19944;-82
2024/03/02 06:40:23;;;;;;;;;;;8.70;99.90;;;;;;5068027;28;19954;-83
2024/03/02 06:42:49;;;;;;;;;;;8.70;99.90;;;;;;5085433;28;19973;-82
2024/03/02 06:45:14;;;;;;;;;;;8.80;99.90;;;;;;5073475;28;19913;-83
2024/03/02 06:47:40;;;;;;;;;;;8.90;1.00;;;;;;5064252;28;19909;-83
2024/03/02 06:50:06;;;;;;;;;;;9.00;1.00;;;;;;5063018;28;19928;-81
2024/03/02 06:52:32;;;;;;;;;;;9.10;99.90;;;;;;5079158;28;19912;-83
2024/03/02 06:54:58;;;;;;;;;;;9.20;99.90;;;;;;5084794;28;19943;-83
2024/03/02 06:57:24;;;;;;;;;;;9.30;1.00;;;;;;5085366;28;20352;-82
2024/03/02 06:59:51;;;;;;;;;;;9.40;99.90;;;;;;5082422;28;19909;-81
2024/03/02 07:02:16;;;;;;;;;;;9.40;99.90;;;;;;5074236;28;19944;-81
2024/03/02 07:04:42;;;;;;;;;;;9.50;99.90;;;;;;5038583;28;19913;-82
2024/03/02 07:07:07;;;;;;;;;;;9.50;99.90;;;;;;5058096;28;19917;-82
2024/03/02 07:09:33;;;;;;;;;;;9.60;1.00;;;;;;5073405;28;19954;-82
2024/03/02 07:11:58;;;;;;;;;;;9.70;1.00;;;;;;5078459;28;19925;-82
2024/03/02 07:14:55;;;;;;;;;;;9.70;1.00;;;;;;5060697;28;19908;-82
2024/03/02 07:17:12;;;;;;;;;;;9.70;1.00;;;;;;5078181;28;19913;-81
2024/03/02 07:19:38;;;;;;;;;;;9.70;1.00;;;;;;5060439;28;20355;-81
2024/03/02 07:22:05;;;;;;;;;;;9.60;1.00;;;;;;5068645;28;20370;-81
2024/03/02 07:24:31;;;;;;;;;;;9.70;1.00;;;;;;5071084;28;19944;-81
2024/03/02 07:26:56;;;;;;;;;;;9.70;1.00;;;;;;5062351;28;19979;-82
2024/03/02 07:29:22;;;;;;;;;;;9.70;99.90;;;;;;5066173;28;19983;-82
2024/03/02 07:31:48;;;;;;;;;;;9.90;99.90;;;;;;5051878;28;19920;-82
2024/03/02 07:34:13;;;;;;;;;;;9.90;99.90;;;;;;5049149;28;19916;-82
2024/03/02 07:36:39;;;;;;;;;;;10.00;99.90;;;;;;5070870;28;19948;-82
2024/03/02 07:39:04;;;;;;;;;;;10.00;17.70;;;;;;5076499;28;19915;-82
2024/03/02 07:41:30;;;;;;;;;;;10.00;1.00;;;;;;5066721;28;19909;-82
2024/03/02 07:43:56;;;;;;;;;;;10.00;1.00;;;;;;5078804;28;19908;-82
2024/03/02 07:46:22;;;;;;;;;;;10.10;1.00;;;;;;5061303;28;19912;-82
2024/03/02 07:48:47;;;;;;;;;;;10.10;1.00;;;;;;5046368;28;20271;-83
2024/03/02 07:51:14;;;;;;;;;;;10.10;1.00;;;;;;5071185;28;19916;-82
2024/03/02 07:53:39;;;;;;;;;;;10.20;1.00;;;;;;5082986;28;19908;-82
2024/03/02 07:56:05;;;;;;;;;;;10.20;1.00;;;;;;5074982;28;19958;-82
2024/03/02 07:58:31;;;;;;;;;;;10.30;1.00;;;;;;5083256;28;19909;-83
2024/03/02 08:00:56;;;;;;;;;;;10.40;99.90;;;;;;5066661;28;19949;-83
2024/03/02 08:03:22;;;;;;;;;;;10.60;99.90;;;;;;5065689;28;19912;-81
2024/03/02 08:05:48;;;;;;;;;;;10.80;99.90;;;;;;5059460;28;19912;-82
2024/03/02 08:08:13;;;;;;;;;;;10.90;99.90;;;;;;5064996;28;21090;-82
2024/03/02 08:10:38;;;;;;;;;;;11.00;56.90;;;;;;5057896;28;20003;-81
2024/03/02 08:13:04;;;;;;;;;;;11.70;1.00;;;;;;5060119;28;19920;-82
2024/03/02 08:15:29;;;;;;;;;;;13.20;1.00;;;;;;5059142;28;19988;-82
2024/03/02 08:17:56;;;;;;;;;;;13.60;1.00;;;;;;5043346;28;20378;-83
2024/03/02 08:20:21;;;;;;;;;;;17.50;1.00;;;;;;5071234;28;19959;-83
2024/03/02 08:22:47;;;;;;;;;;;20.40;99.90;;;;;;5044417;28;19913;-84
2024/03/02 08:25:12;;;;;;;;;;;22.50;99.90;;;;;;5064166;28;19912;-83
2024/03/02 08:27:40;;;;;;;;;;;24.60;99.90;;;;;;5050979;28;20497;-83
2024/03/02 08:30:06;;;;;;;;;;;26.70;99.90;;;;;;5061318;28;20363;-84
2024/03/02 08:32:31;;;;;;;;;;;28.60;99.90;;;;;;5058970;28;20050;-83
2024/03/02 08:34:57;;;;;;;;;;;30.00;99.90;;;;;;5075122;28;19951;-82
2024/03/02 08:37:22;;;;;;;;;;;29.20;99.90;;;;;;5067367;28;19921;-82
2024/03/02 08:39:48;;;;;;;;;;;29.30;99.90;;;;;;5071546;28;20325;-82
2024/03/02 08:42:13;;;;;;;;;;;30.70;99.90;;;;;;5080927;28;19959;-83
2024/03/02 08:44:39;;;;;;;;;;;31.90;99.90;;;;;;5071834;28;19917;-84
2024/03/02 08:47:05;;;;;;;;;;;30.20;99.90;;;;;;5067303;28;19909;-83
2024/03/02 08:49:30;;;;;;;;;;;28.00;99.90;;;;;;5078100;28;19908;-85
2024/03/02 08:51:55;;;;;;;;;;;26.50;99.90;;;;;;5056088;28;19980;-83
2024/03/02 08:54:21;;;;;;;;;;;25.00;99.90;;;;;;5071067;28;19908;-82
2024/03/02 08:56:47;;;;;;;;;;;23.50;99.90;;;;;;5077928;28;19915;-81
2024/03/02 08:59:13;;;;;;;;;;;22.00;99.90;;;;;;5072618;28;19919;-83
2024/03/02 09:01:41;;;;;;;;;;;20.70;99.90;;;;;;5063701;28;19909;-84
2024/03/02 09:04:08;;;;;;;;;;;19.70;99.90;;;;;;5047301;28;20330;-83
2024/03/02 09:06:34;;;;;;;;;;;18.80;99.90;;;;;;5068136;28;19919;-83
2024/03/02 09:08:59;;;;;;;;;;;18.10;99.90;;;;;;5047214;28;19940;-83
2024/03/02 09:11:25;;;;;;;;;;;17.60;99.90;;;;;;5064464;28;19947;-83
2024/03/02 09:13:51;;;;;;;;;;;17.20;99.90;;;;;;5056305;28;20003;-82
2024/03/02 09:16:16;;;;;;;;;;;16.90;99.90;;;;;;5079072;28;19951;-84
2024/03/02 09:18:42;;;;;;;;;;;16.70;99.90;;;;;;5064916;28;19921;-83
2024/03/02 09:21:07;;;;;;;;;;;16.50;99.90;;;;;;5059949;28;19976;-82
2024/03/02 09:23:33;;;;;;;;;;;16.30;99.90;;;;;;5065117;28;19913;-83
2024/03/02 09:25:59;;;;;;;;;;;16.20;99.90;;;;;;5068249;28;20394;-84
2024/03/02 09:28:24;;;;;;;;;;;16.20;99.90;;;;;;5060480;28;19920;-84
2024/03/02 09:30:50;;;;;;;;;;;16.30;99.90;;;;;;5061156;28;19913;-82
2024/03/02 09:33:15;;;;;;;;;;;16.40;99.90;;;;;;5030514;28;19947;-83
2024/03/02 09:35:40;;;;;;;;;;;16.60;99.90;;;;;;5058713;28;19940;-81
2024/03/02 09:38:06;;;;;;;;;;;16.70;99.90;;;;;;5061908;28;19917;-83
2024/03/02 09:40:31;;;;;;;;;;;16.90;99.90;;;;;;5064303;28;19973;-83
2024/03/02 09:42:57;;;;;;;;;;;18.00;99.90;;;;;;5059257;28;19956;-84
2024/03/02 09:45:23;;;;;;;;;;;19.70;99.90;;;;;;5064282;28;19970;-82
2024/03/02 09:47:49;;;;;;;;;;;21.20;99.90;;;;;;5045508;28;19988;-84
2024/03/02 09:50:15;;;;;;;;;;;22.50;99.90;;;;;;5056584;28;20347;-85
2024/03/02 09:52:41;;;;;;;;;;;23.90;99.90;;;;;;5055739;28;20325;-86
2024/03/02 09:55:08;;;;;;;;;;;25.40;99.90;;;;;;5061551;28;19913;-84
2024/03/02 09:57:33;;;;;;;;;;;26.40;99.90;;;;;;5054470;28;20401;-83
2024/03/02 09:59:58;;;;;;;;;;;27.10;99.90;;;;;;5030659;28;19913;-84
2024/03/02 10:02:24;;;;;;;;;;;27.80;99.90;;;;;;5057558;28;19921;-83
2024/03/02 10:04:50;;;;;;;;;;;28.20;99.90;;;;;;5054183;28;19920;-83
2024/03/02 10:07:16;;;;;;;;;;;28.60;99.90;;;;;;5057661;28;20025;-83
2024/03/02 10:09:42;;;;;;;;;;;29.10;99.90;;;;;;5038764;28;19913;-83
2024/03/02 10:12:09;;;;;;;;;;;29.50;99.90;;;;;;5058124;28;19921;-83
2024/03/02 10:14:34;;;;;;;;;;;29.70;99.90;;;;;;5038019;28;19912;-85
2024/03/02 10:17:03;;;;;;;;;;;29.60;99.90;;;;;;5054162;28;19957;-85
2024/03/02 10:19:32;;;;;;;;;;;29.70;99.90;;;;;;5052377;28;19939;-84
2024/03/02 10:21:58;;;;;;;;;;;29.90;99.90;;;;;;5056501;28;19913;-84
2024/03/02 10:24:24;;;;;;;;;;;30.30;99.90;;;;;;5061281;28;19912;-85
2024/03/02 10:26:50;;;;;;;;;;;30.50;99.90;;;;;;5036040;28;19920;-85
2024/03/02 10:29:16;;;;;;;;;;;30.40;99.90;;;;;;5050671;28;19917;-85
2024/03/02 10:31:43;;;;;;;;;;;30.50;99.90;;;;;;5051815;28;19963;-85
2024/03/02 10:34:09;;;;;;;;;;;30.40;99.90;;;;;;5039503;28;19916;-83
2024/03/02 10:36:36;;;;;;;;;;;30.40;99.90;;;;;;5060006;28;19912;-84
2024/03/02 10:39:02;;;;;;;;;;;30.60;99.90;;;;;;5035431;28;20390;-85
2024/03/02 10:41:28;;;;;;;;;;;31.00;99.90;;;;;;5041433;28;19940;-84
2024/03/02 10:43:59;;;;;;;;;;;31.10;99.90;;;;;;5051798;28;19920;-85
2024/03/02 10:46:29;;;;;;;;;;;31.30;99.90;;;;;;5049119;28;20408;-85
2024/03/02 10:48:55;;;;;;;;;;;31.30;99.90;;;;;;5044138;28;19935;-83
2024/03/02 10:51:20;;;;;;;;;;;31.60;99.90;;;;;;5050921;28;19931;-85
2024/03/02 10:53:46;;;;;;;;;;;31.90;99.90;;;;;;5041655;28;19917;-84
2024/03/02 10:56:15;;;;;;;;;;;32.00;99.90;;;;;;5051785;28;20402;-84
2024/03/02 10:58:41;;;;;;;;;;;31.90;99.90;;;;;;5031434;28;20362;-85
2024/03/02 11:01:07;;;;;;;;;;;32.00;99.90;;;;;;5047030;28;19920;-86
2024/03/02 11:03:39;;;;;;;;;;;31.80;99.90;;;;;;5065276;28;20314;-85
2024/03/02 11:06:07;;;;;;;;;;;31.40;99.90;;;;;;5049716;28;19913;-85
2024/03/02 11:08:33;;;;;;;;;;;31.00;99.90;;;;;;5056685;28;20027;-85
2024/03/02 11:11:03;;;;;;;;;;;30.40;99.90;;;;;;5058697;28;19967;-85
2024/03/02 11:13:31;;;;;;;;;;;30.50;99.90;;;;;;5067804;28;19927;-85
2024/03/02 11:15:59;;;;;;;;;;;30.70;99.90;;;;;;5065463;28;20361;-85
2024/03/02 11:18:25;;;;;;;;;;;30.80;99.90;;;;;;5042706;28;19985;-85
2024/03/02 11:20:50;;;;;;;;;;;30.90;99.90;;;;;;5061156;28;20295;-85
2024/03/02 11:23:16;;;;;;;;;;;31.10;99.90;;;;;;5054994;28;19917;-85
2024/03/02 11:25:41;;;;;;;;;;;31.40;99.90;;;;;;5059137;28;19912;-84
2024/03/02 11:28:10;;;;;;;;;;;31.20;99.90;;;;;;5068761;28;19964;-84
2024/03/02 11:30:37;;;;;;;;;;;31.10;99.90;;;;;;5052399;28;19917;-85
2024/03/02 11:33:09;;;;;;;;;;;31.20;99.90;;;;;;5055089;28;19999;-84
2024/03/02 11:35:34;;;;;;;;;;;31.50;99.90;;;;;;5060740;28;19921;-83
2024/03/02 11:38:00;;;;;;;;;;;31.40;99.90;;;;;;5067665;28;19936;-85
2024/03/02 11:40:26;;;;;;;;;;;31.20;99.90;;;;;;5069585;28;19961;-84
2024/03/02 11:42:52;;;;;;;;;;;31.10;99.90;;;;;;5073647;28;19917;-84
2024/03/02 11:45:22;;;;;;;;;;;30.30;99.90;;;;;;5073029;28;19912;-84
2024/03/02 11:47:51;;;;;;;;;;;29.10;99.90;;;;;;5059330;28;20271;-83
2024/03/02 11:50:37;;;;;;;;;;;27.80;99.90;;;;;;5036028;28;19920;-82
2024/03/02 11:53:06;;;;;;;;;;;26.50;99.90;;;;;;5053344;28;19921;-82
2024/03/02 11:55:34;;;;;;;;;;;25.40;99.90;;;;;;5067159;28;20003;-83
2024/03/02 11:58:00;;;;;;;;;;;24.50;99.90;;;;;;5046447;28;19956;-83
2024/03/02 12:00:26;;;;;;;;;;;23.60;99.90;;;;;;5055660;28;19923;-82
2024/03/02 12:03:08;;;;;;;;;;;22.90;99.90;;;;;;5058669;28;19920;-84
2024/03/02 12:05:34;;;;;;;;;;;22.60;99.90;;;;;;5044539;28;19912;-83
2024/03/02 12:08:01;;;;;;;;;;;22.30;99.90;;;;;;5054840;28;19913;-83
2024/03/02 12:10:27;;;;;;;;;;;21.70;99.90;;;;;;5056259;28;19917;-83
2024/03/02 12:12:59;;;;;;;;;;;21.10;99.90;;;;;;5047635;28;19909;-83
2024/03/02 12:15:26;;;;;;;;;;;20.90;99.90;;;;;;5052941;28;19924;-83
2024/03/02 12:17:55;;;;;;;;;;;20.80;99.90;;;;;;5053705;28;19913;-83
2024/03/02 12:20:21;;;;;;;;;;;20.80;99.90;;;;;;5047034;28;19919;-83
2024/03/02 12:22:47;;;;;;;;;;;20.60;99.90;;;;;;5072320;28;19921;-84
2024/03/02 12:25:12;;;;;;;;;;;20.20;99.90;;;;;;5043477;28;19920;-83
2024/03/02 12:27:39;;;;;;;;;;;19.80;99.90;;;;;;5059920;28;19921;-84
2024/03/02 12:30:08;;;;;;;;;;;19.60;99.90;;;;;;5057323;28;19917;-84
2024/03/02 12:32:33;;;;;;;;;;;19.40;99.90;;;;;;5060138;28;19917;-84
2024/03/02 12:34:59;;;;;;;;;;;19.40;99.90;;;;;;5050857;28;20348;-83
2024/03/02 12:37:24;;;;;;;;;;;19.40;99.90;;;;;;5067344;28;19921;-83
2024/03/02 12:39:50;;;;;;;;;;;19.50;99.90;;;;;;5070968;28;19912;-83
2024/03/02 12:42:15;;;;;;;;;;;19.50;99.90;;;;;;5038807;28;19917;-83
2024/03/02 12:44:41;;;;;;;;;;;19.60;99.90;;;;;;5059130;28;19913;-83
2024/03/02 12:47:06;;;;;;;;;;;19.60;99.90;;;;;;5043659;28;19952;-83
2024/03/02 12:49:32;;;;;;;;;;;19.60;99.90;;;;;;5066251;28;19916;-83
2024/03/02 12:51:57;;;;;;;;;;;19.60;99.90;;;;;;5064215;28;19920;-84
2024/03/02 12:54:24;;;;;;;;;;;19.70;99.90;;;;;;5054824;28;19920;-83
2024/03/02 12:56:50;;;;;;;;;;;19.50;99.90;;;;;;5063316;28;19913;-82
2024/03/02 12:59:21;;;;;;;;;;;19.50;99.90;;;;;;5060774;28;19952;-83
2024/03/02 13:01:53;;;;;;;;;;;19.70;99.90;;;;;;5047648;28;19921;-83
2024/03/02 13:04:25;;;;;;;;;;;19.80;99.90;;;;;;5067065;28;20398;-84
2024/03/02 13:06:51;;;;;;;;;;;19.80;99.90;;;;;;5046431;28;19963;-85
2024/03/02 13:09:17;;;;;;;;;;;19.70;99.90;;;;;;5053683;28;19966;-84
2024/03/02 13:11:42;;;;;;;;;;;19.50;99.90;;;;;;5054706;28;20043;-84
2024/03/02 13:14:08;;;;;;;;;;;19.30;99.90;;;;;;5061215;28;19977;-84
2024/03/02 13:16:38;;;;;;;;;;;19.40;99.90;;;;;;5057268;28;19920;-85
2024/03/02 13:19:04;;;;;;;;;;;19.40;99.90;;;;;;5060367;28;19912;-83
2024/03/02 13:21:29;;;;;;;;;;;19.40;99.90;;;;;;5051778;28;19921;-85
2024/03/02 13:23:55;;;;;;;;;;;19.50;99.90;;;;;;5046236;28;19913;-83
2024/03/02 13:26:20;;;;;;;;;;;19.20;99.90;;;;;;5032040;28;19959;-84
2024/03/02 13:28:46;;;;;;;;;;;18.90;99.90;;;;;;5055361;28;20867;-82
2024/03/02 13:31:12;;;;;;;;;;;19.00;99.90;;;;;;5062216;28;19912;-83
2024/03/02 13:33:37;;;;;;;;;;;18.80;99.90;;;;;;5055478;28;19917;-83
2024/03/02 13:36:03;;;;;;;;;;;18.50;99.90;;;;;;5055740;28;19913;-83
2024/03/02 13:38:28;;;;;;;;;;;18.40;99.90;;;;;;5051069;28;19923;-83
2024/03/02 13:40:54;;;;;;;;;;;18.30;99.90;;;;;;5063263;28;19913;-83
2024/03/02 13:43:19;;;;;;;;;;;18.10;99.90;;;;;;5061333;28;19921;-85
2024/03/02 13:45:45;;;;;;;;;;;17.90;99.90;;;;;;5045223;28;20303;-83
2024/03/02 13:48:10;;;;;;;;;;;17.80;99.90;;;;;;5053817;28;20003;-84
2024/03/02 13:50:36;;;;;;;;;;;17.60;99.90;;;;;;5051936;28;19917;-84
2024/03/02 13:53:03;;;;;;;;;;;17.40;99.90;;;;;;5053683;28;19917;-85
2024/03/02 13:55:30;;;;;;;;;;;17.20;99.90;;;;;;5054401;28;20274;-83
2024/03/02 13:57:55;;;;;;;;;;;17.00;99.90;;;;;;5061857;28;20566;-84
2024/03/02 14:00:21;;;;;;;;;;;16.80;99.90;;;;;;5049015;28;19921;-85
2024/03/02 14:02:49;;;;;;;;;;;16.60;99.90;;;;;;5059157;28;19921;-83
2024/03/02 14:05:15;;;;;;;;;;;16.50;99.90;;;;;;5035863;28;19975;-83
2024/03/02 14:07:41;;;;;;;;;;;16.40;99.90;;;;;;5064998;28;19936;-83
2024/03/02 14:10:06;;;;;;;;;;;16.30;99.90;;;;;;5065245;28;19920;-83
2024/03/02 14:12:32;;;;;;;;;;;16.30;99.90;;;;;;5062566;28;20032;-82
2024/03/02 14:15:02;;;;;;;;;;;16.40;99.90;;;;;;5045098;28;19913;-82
2024/03/02 14:17:28;;;;;;;;;;;16.50;99.90;;;;;;5059731;28;19935;-83
2024/03/02 14:19:53;;;;;;;;;;;16.50;99.90;;;;;;5060951;28;19908;-83
2024/03/02 14:22:19;;;;;;;;;;;16.50;99.90;;;;;;5061512;28;20389;-82
2024/03/02 14:24:45;;;;;;;;;;;16.40;99.90;;;;;;5056075;28;19920;-81
2024/03/02 14:27:10;;;;;;;;;;;16.50;99.90;;;;;;5040160;28;19931;-82